Time;durP1;ratioP1;P1;durP2;ratioP2;P2;SDS_P1;SDS_P2;PMS_P1;PMS_P2;Temp;Humidity;BMP_temperature;BMP_pressure;BME280_temperature;BME280_humidity;BME280_pressure;Samples;Min_cycle;Max_cycle;Signal;HPM_P1;HPM_P2
2022/05/09 00:00:15;;;;;;;3.20;1.10;;;;;;;;;;4995585;28;20029;-84
2022/05/09 00:02:40;;;;;;;3.65;1.35;;;;;;;;;;5028050;28;20084;-84
2022/05/09 00:05:06;;;;;;;2.40;1.13;;;;;;;;;;5028247;28;20029;-84
2022/05/09 00:07:33;;;;;;;3.70;1.02;;;;;;;;;;4979235;28;20033;-84
2022/05/09 00:10:00;;;;;;;2.92;1.00;;;;;;;;;;5027851;28;20096;-84
2022/05/09 00:12:25;;;;;;;3.70;0.90;;;;;;;;;;4979292;28;20034;-84
2022/05/09 00:14:51;;;;;;;2.97;1.23;;;;;;;;;;4995374;28;20065;-84
2022/05/09 00:17:16;;;;;;;4.88;1.20;;;;;;;;;;4994625;28;20111;-85
2022/05/09 00:19:42;;;;;;;2.28;0.82;;;;;;;;;;4979264;28;20408;-84
2022/05/09 00:22:07;;;;;;;4.15;1.58;;;;;;;;;;4978991;28;20412;-84
2022/05/09 00:24:34;;;;;;;4.75;1.10;;;;;;;;;;5011334;28;20053;-85
2022/05/09 00:26:59;;;;;;;2.13;1.10;;;;;;;;;;4995110;28;20038;-84
2022/05/09 00:29:26;;;;;;;3.55;1.20;;;;;;;;;;4979065;28;20472;-83
2022/05/09 00:31:53;;;;;;;3.95;0.90;;;;;;;;;;4995243;28;20034;-84
2022/05/09 00:34:21;;;;;;;4.35;1.35;;;;;;;;;;4978802;28;20148;-84
2022/05/09 00:36:48;;;;;;;2.20;1.10;;;;;;;;;;4979045;28;20030;-84
2022/05/09 00:39:14;;;;;;;2.47;1.13;;;;;;;;;;4978551;28;20060;-84
2022/05/09 00:41:43;;;;;;;3.53;1.00;;;;;;;;;;4978370;28;20073;-84
2022/05/09 00:44:19;;;;;;;3.50;1.20;;;;;;;;;;4979753;28;20038;-83
2022/05/09 00:46:46;;;;;;;2.90;1.02;;;;;;;;;;5010858;28;20210;-82
2022/05/09 00:49:46;;;;;;;4.95;1.20;;;;;;;;;;4978287;28;20060;-83
2022/05/09 00:52:27;;;;;;;4.35;1.30;;;;;;;;;;4993336;28;20125;-83
2022/05/09 00:55:13;;;;;;;4.35;1.20;;;;;;;;;;5027301;28;20042;-83
2022/05/09 00:57:40;;;;;;;2.78;1.27;;;;;;;;;;4994402;28;20036;-83
2022/05/09 01:00:14;;;;;;;3.05;1.60;;;;;;;;;;5010727;28;20034;-83
2022/05/09 01:02:42;;;;;;;4.10;1.63;;;;;;;;;;4979113;28;20400;-82
2022/05/09 01:05:08;;;;;;;4.00;1.50;;;;;;;;;;5010839;28;20073;-83
2022/05/09 01:07:34;;;;;;;3.10;1.33;;;;;;;;;;5013397;28;20486;-83
2022/05/09 01:09:59;;;;;;;3.63;1.00;;;;;;;;;;5014991;28;20057;-83
2022/05/09 01:12:32;;;;;;;5.15;2.15;;;;;;;;;;4998329;28;20067;-83
2022/05/09 01:15:04;;;;;;;3.85;1.60;;;;;;;;;;4982043;28;20037;-83
2022/05/09 01:17:31;;;;;;;4.85;1.90;;;;;;;;;;4982293;28;20050;-83
2022/05/09 01:19:58;;;;;;;4.25;1.63;;;;;;;;;;4998654;28;20132;-83
2022/05/09 01:22:27;;;;;;;5.63;2.00;;;;;;;;;;4982092;28;20037;-83
2022/05/09 01:24:54;;;;;;;4.25;1.77;;;;;;;;;;4981880;28;20041;-83
2022/05/09 01:27:19;;;;;;;2.88;1.35;;;;;;;;;;4981640;28;20076;-83
2022/05/09 01:29:51;;;;;;;4.90;1.67;;;;;;;;;;4997817;28;20045;-83
2022/05/09 01:32:19;;;;;;;4.38;1.52;;;;;;;;;;4982037;28;20036;-82
2022/05/09 01:34:47;;;;;;;3.65;1.67;;;;;;;;;;4998619;28;20052;-83
2022/05/09 01:37:12;;;;;;;4.18;1.75;;;;;;;;;;4998018;28;20520;-82
2022/05/09 01:39:39;;;;;;;2.20;1.38;;;;;;;;;;4981677;28;20528;-83
2022/05/09 01:42:06;;;;;;;3.17;1.50;;;;;;;;;;4981560;28;20527;-81
2022/05/09 01:44:32;;;;;;;4.00;1.73;;;;;;;;;;4997451;28;20416;-82
2022/05/09 01:49:41;;;;;;;4.50;1.52;;;;;;;;;;5002736;28;20393;-82
2022/05/09 01:52:08;;;;;;;5.75;1.75;;;;;;;;;;4981644;28;20104;-82
2022/05/09 01:54:34;;;;;;;3.53;1.55;;;;;;;;;;4997642;28;20068;-82
2022/05/09 01:56:59;;;;;;;3.88;1.90;;;;;;;;;;4997160;28;20523;-83
2022/05/09 01:59:25;;;;;;;4.38;2.15;;;;;;;;;;4981081;28;20112;-83
2022/05/09 02:01:59;;;;;;;3.67;1.50;;;;;;;;;;5030377;28;20129;-82
2022/05/09 02:04:25;;;;;;;5.95;2.25;;;;;;;;;;4997706;28;20083;-83
2022/05/09 02:06:51;;;;;;;3.95;1.55;;;;;;;;;;5013770;28;20408;-84
2022/05/09 02:09:17;;;;;;;3.70;1.67;;;;;;;;;;5030061;28;20076;-83
2022/05/09 02:11:43;;;;;;;4.05;1.60;;;;;;;;;;5029891;28;20041;-84
2022/05/09 02:14:09;;;;;;;4.13;1.67;;;;;;;;;;5029713;28;20042;-83
2022/05/09 02:16:34;;;;;;;3.72;1.60;;;;;;;;;;4981246;28;20065;-84
2022/05/09 02:19:01;;;;;;;4.18;1.52;;;;;;;;;;4996292;28;20045;-83
2022/05/09 02:21:26;;;;;;;3.50;1.30;;;;;;;;;;4980728;28;20041;-84
2022/05/09 02:23:52;;;;;;;3.53;1.70;;;;;;;;;;4980914;28;20037;-83
2022/05/09 02:26:18;;;;;;;2.58;1.48;;;;;;;;;;4996807;28;20037;-83
2022/05/09 02:28:45;;;;;;;2.45;1.40;;;;;;;;;;4980872;28;20033;-83
2022/05/09 02:31:10;;;;;;;3.00;1.50;;;;;;;;;;4980955;28;20044;-84
2022/05/09 02:33:35;;;;;;;2.83;1.20;;;;;;;;;;5013449;28;20030;-84
2022/05/09 02:36:01;;;;;;;4.18;2.00;;;;;;;;;;4996881;28;20036;-83
2022/05/09 02:38:28;;;;;;;4.07;2.13;;;;;;;;;;4997005;28;20106;-84
2022/05/09 02:40:54;;;;;;;5.07;1.52;;;;;;;;;;4980614;28;20026;-83
2022/05/09 02:43:20;;;;;;;2.92;1.38;;;;;;;;;;4996830;28;20033;-83
2022/05/09 02:45:45;;;;;;;3.30;1.63;;;;;;;;;;4980704;28;20040;-83
2022/05/09 02:48:11;;;;;;;3.70;1.52;;;;;;;;;;4980314;28;20045;-83
2022/05/09 02:50:36;;;;;;;5.15;1.58;;;;;;;;;;4996497;28;20068;-84
2022/05/09 02:53:03;;;;;;;3.33;1.40;;;;;;;;;;4980478;28;20065;-83
2022/05/09 02:55:31;;;;;;;2.47;1.50;;;;;;;;;;5028989;28;20033;-84
2022/05/09 02:57:58;;;;;;;4.95;1.73;;;;;;;;;;5029055;28;20030;-84
2022/05/09 03:00:25;;;;;;;3.78;1.85;;;;;;;;;;4996797;28;20124;-84
2022/05/09 03:05:35;;;;;;;3.40;1.40;;;;;;;;;;5013155;28;20030;-84
2022/05/09 03:08:01;;;;;;;5.05;1.45;;;;;;;;;;4996142;28;20515;-84
2022/05/09 03:10:28;;;;;;;3.00;1.60;;;;;;;;;;5028844;28;20030;-83
2022/05/09 03:12:59;;;;;;;4.40;2.22;;;;;;;;;;5028876;28;20111;-83
2022/05/09 03:15:29;;;;;;;3.15;1.48;;;;;;;;;;4979975;28;20072;-84
2022/05/09 03:17:55;;;;;;;6.18;1.58;;;;;;;;;;4996445;28;20057;-84
2022/05/09 03:20:22;;;;;;;3.40;1.75;;;;;;;;;;4995985;28;20062;-84
2022/05/09 03:22:48;;;;;;;4.30;1.80;;;;;;;;;;4996244;28;20088;-83
2022/05/09 03:25:14;;;;;;;4.97;2.20;;;;;;;;;;4979873;28;20120;-84
2022/05/09 03:27:39;;;;;;;2.58;1.40;;;;;;;;;;4996124;28;20042;-84
2022/05/09 03:30:06;;;;;;;3.63;1.60;;;;;;;;;;4995929;28;20034;-84
2022/05/09 03:32:34;;;;;;;4.75;2.38;;;;;;;;;;4979895;28;20068;-83
2022/05/09 03:35:00;;;;;;;2.92;1.50;;;;;;;;;;4979982;28;20026;-84
2022/05/09 03:37:27;;;;;;;3.63;1.73;;;;;;;;;;4995466;28;20053;-84
2022/05/09 03:39:52;;;;;;;4.78;2.00;;;;;;;;;;4979446;28;20603;-84
2022/05/09 03:42:18;;;;;;;4.50;1.55;;;;;;;;;;4979222;28;20077;-84
2022/05/09 03:44:43;;;;;;;3.60;1.83;;;;;;;;;;4979603;28;20400;-84
2022/05/09 03:47:09;;;;;;;4.00;1.80;;;;;;;;;;4979285;28;20029;-84
2022/05/09 03:49:34;;;;;;;4.13;1.60;;;;;;;;;;4979306;28;20041;-84
2022/05/09 03:52:00;;;;;;;2.90;1.60;;;;;;;;;;4985402;28;20120;-84
2022/05/09 03:54:25;;;;;;;4.65;1.60;;;;;;;;;;5015120;28;20079;-84
2022/05/09 03:56:51;;;;;;;2.92;1.50;;;;;;;;;;4999524;28;20046;-84
2022/05/09 03:59:17;;;;;;;4.22;1.85;;;;;;;;;;5028215;28;20044;-83
2022/05/09 04:01:44;;;;;;;3.67;1.60;;;;;;;;;;5028380;28;20034;-84
2022/05/09 04:04:10;;;;;;;3.97;1.83;;;;;;;;;;5028249;28;20029;-84
2022/05/09 04:06:36;;;;;;;2.53;1.35;;;;;;;;;;5027884;28;20088;-84
2022/05/09 04:09:01;;;;;;;3.35;1.17;;;;;;;;;;5027883;28;20121;-84
2022/05/09 04:11:28;;;;;;;4.43;1.98;;;;;;;;;;5027884;28;20041;-84
2022/05/09 04:13:53;;;;;;;3.22;1.48;;;;;;;;;;5027872;28;20049;-84
2022/05/09 04:19:04;;;;;;;4.13;1.92;;;;;;;;;;4997073;28;20033;-85
2022/05/09 04:21:30;;;;;;;3.00;1.92;;;;;;;;;;4978555;28;20034;-84
2022/05/09 04:23:58;;;;;;;4.32;1.90;;;;;;;;;;4978922;28;20033;-84
2022/05/09 04:26:26;;;;;;;4.35;1.70;;;;;;;;;;4979485;28;20109;-84
2022/05/09 04:28:52;;;;;;;4.07;2.03;;;;;;;;;;4994941;28;20025;-84
2022/05/09 04:31:19;;;;;;;8.63;2.85;;;;;;;;;;4978880;28;20065;-85
2022/05/09 04:33:45;;;;;;;3.72;2.13;;;;;;;;;;4963195;28;20500;-83
2022/05/09 04:36:11;;;;;;;5.40;1.92;;;;;;;;;;4978649;28;20045;-84
2022/05/09 04:38:40;;;;;;;3.67;1.80;;;;;;;;;;4978362;28;20042;-84
2022/05/09 04:41:06;;;;;;;4.20;1.88;;;;;;;;;;4976189;28;20563;-84
2022/05/09 04:43:33;;;;;;;4.85;2.05;;;;;;;;;;4990919;28;20497;-82
2022/05/09 04:46:00;;;;;;;3.97;1.60;;;;;;;;;;5008020;28;20042;-81
2022/05/09 04:48:26;;;;;;;3.40;1.75;;;;;;;;;;4975243;28;20040;-81
2022/05/09 04:50:51;;;;;;;3.47;1.65;;;;;;;;;;4991116;28;20409;-81
2022/05/09 04:53:17;;;;;;;3.45;1.58;;;;;;;;;;5007215;28;20409;-81
2022/05/09 04:55:43;;;;;;;3.63;1.38;;;;;;;;;;4994376;28;20417;-84
2022/05/09 04:58:19;;;;;;;4.13;1.48;;;;;;;;;;5027013;28;20520;-82
2022/05/09 05:00:45;;;;;;;3.97;1.30;;;;;;;;;;5028323;28;20048;-82
2022/05/09 05:03:10;;;;;;;7.10;1.92;;;;;;;;;;4994343;28;20404;-80
2022/05/09 05:05:36;;;;;;;5.40;3.00;;;;;;;;;;4978576;28;20089;-81
2022/05/09 05:08:03;;;;;;;5.93;1.65;;;;;;;;;;4978040;28;20037;-81
2022/05/09 05:10:28;;;;;;;7.10;2.25;;;;;;;;;;5027038;28;20587;-80
2022/05/09 05:12:56;;;;;;;4.00;1.90;;;;;;;;;;5026969;28;20116;-82
2022/05/09 05:15:21;;;;;;;5.20;1.92;;;;;;;;;;4977997;28;20669;-81
2022/05/09 05:17:47;;;;;;;4.15;2.08;;;;;;;;;;5004827;28;20037;-81
2022/05/09 05:20:14;;;;;;;4.28;1.75;;;;;;;;;;4984793;28;20042;-82
2022/05/09 05:22:40;;;;;;;7.43;2.13;;;;;;;;;;4974407;28;20027;-81
2022/05/09 05:25:06;;;;;;;9.30;2.38;;;;;;;;;;4985439;28;20038;-82
2022/05/09 05:27:32;;;;;;;8.30;2.45;;;;;;;;;;4974490;28;20521;-82
2022/05/09 05:29:59;;;;;;;7.65;2.45;;;;;;;;;;4990942;28;20034;-82
2022/05/09 05:32:27;;;;;;;5.38;1.98;;;;;;;;;;4994027;28;20068;-82
2022/05/09 05:34:52;;;;;;;7.05;2.17;;;;;;;;;;5010431;28;20029;-82
2022/05/09 05:37:18;;;;;;;6.97;1.92;;;;;;;;;;5009846;28;20129;-82
2022/05/09 05:39:44;;;;;;;6.40;2.08;;;;;;;;;;5023837;28;20523;-83
2022/05/09 05:42:10;;;;;;;6.45;2.63;;;;;;;;;;5026209;28;20057;-84
2022/05/09 05:44:39;;;;;;;6.25;1.92;;;;;;;;;;5010502;28;20034;-82
2022/05/09 05:47:06;;;;;;;10.60;2.60;;;;;;;;;;5027178;28;20049;-83
2022/05/09 05:49:32;;;;;;;6.70;2.00;;;;;;;;;;5023327;28;20058;-83
2022/05/09 05:52:02;;;;;;;6.80;2.65;;;;;;;;;;4990152;28;20038;-83
2022/05/09 05:54:28;;;;;;;11.52;2.83;;;;;;;;;;4978922;28;20062;-82
2022/05/09 05:56:53;;;;;;;15.27;2.97;;;;;;;;;;4978466;28;20043;-83
2022/05/09 05:59:19;;;;;;;10.63;2.70;;;;;;;;;;5026942;28;20509;-82
2022/05/09 06:01:44;;;;;;;9.60;2.45;;;;;;;;;;5026918;28;20042;-83
2022/05/09 06:04:10;;;;;;;7.35;3.00;;;;;;;;;;5027027;28;20050;-82
2022/05/09 06:06:35;;;;;;;8.57;2.40;;;;;;;;;;5029374;28;20404;-80
2022/05/09 06:09:01;;;;;;;9.00;2.90;;;;;;;;;;4997151;28;20440;-81
2022/05/09 06:11:27;;;;;;;6.82;2.05;;;;;;;;;;4996998;28;20042;-81
2022/05/09 06:13:52;;;;;;;7.35;2.33;;;;;;;;;;4997360;28;20038;-81
2022/05/09 06:16:18;;;;;;;10.02;2.53;;;;;;;;;;4997034;28;20124;-81
2022/05/09 06:18:45;;;;;;;6.80;2.13;;;;;;;;;;5013154;28;20060;-81
2022/05/09 06:21:10;;;;;;;6.90;1.98;;;;;;;;;;5029434;28;20038;-81
2022/05/09 06:23:36;;;;;;;8.60;2.63;;;;;;;;;;5030003;28;20095;-81
2022/05/09 06:26:01;;;;;;;5.40;2.30;;;;;;;;;;5013161;28;20034;-81
2022/05/09 06:28:27;;;;;;;7.38;2.47;;;;;;;;;;5029784;28;20046;-81
2022/05/09 06:30:53;;;;;;;6.50;2.70;;;;;;;;;;5029724;28;20448;-81
2022/05/09 06:33:25;;;;;;;6.40;2.03;;;;;;;;;;5013065;28;20071;-82
2022/05/09 06:35:51;;;;;;;6.22;2.05;;;;;;;;;;5012909;28;20049;-83
2022/05/09 06:38:18;;;;;;;5.03;2.03;;;;;;;;;;5012818;28;20153;-82
2022/05/09 06:40:43;;;;;;;7.15;1.90;;;;;;;;;;5012562;28;20056;-83
2022/05/09 06:43:09;;;;;;;3.85;1.90;;;;;;;;;;5013218;28;20453;-83
2022/05/09 06:45:34;;;;;;;5.57;1.60;;;;;;;;;;4996395;28;20037;-83
2022/05/09 06:48:00;;;;;;;5.53;1.85;;;;;;;;;;5012670;28;20508;-83
2022/05/09 06:50:31;;;;;;;5.47;1.63;;;;;;;;;;4998510;28;20459;-83
2022/05/09 06:52:57;;;;;;;4.43;1.55;;;;;;;;;;4985718;28;20049;-83
2022/05/09 06:55:24;;;;;;;3.22;2.03;;;;;;;;;;4996427;28;20586;-83
2022/05/09 06:57:52;;;;;;;6.82;1.92;;;;;;;;;;5028944;28;20049;-82
2022/05/09 07:00:24;;;;;;;4.82;1.80;;;;;;;;;;5029803;28;20038;-83
2022/05/09 07:02:50;;;;;;;6.15;1.88;;;;;;;;;;4996147;28;20030;-83
2022/05/09 07:05:17;;;;;;;6.22;2.00;;;;;;;;;;5028662;28;20041;-82
2022/05/09 07:07:43;;;;;;;7.03;2.40;;;;;;;;;;5012716;28;20034;-82
2022/05/09 07:10:11;;;;;;;3.45;1.50;;;;;;;;;;5029116;28;20060;-83
2022/05/09 07:12:43;;;;;;;8.07;1.88;;;;;;;;;;5029240;28;20048;-83
2022/05/09 07:15:10;;;;;;;4.97;2.20;;;;;;;;;;4996408;28;20037;-83
2022/05/09 07:17:36;;;;;;;3.92;1.50;;;;;;;;;;4979554;28;20052;-83
2022/05/09 07:20:02;;;;;;;5.53;1.55;;;;;;;;;;5012200;28;20046;-83
2022/05/09 07:22:27;;;;;;;5.00;2.05;;;;;;;;;;4996030;28;20034;-83
2022/05/09 07:24:53;;;;;;;3.35;1.70;;;;;;;;;;4979889;28;20392;-83
2022/05/09 07:27:18;;;;;;;6.30;2.03;;;;;;;;;;4995647;28;20454;-83
2022/05/09 07:29:43;;;;;;;4.43;1.75;;;;;;;;;;5012307;28;20377;-82
2022/05/09 07:32:09;;;;;;;3.80;1.88;;;;;;;;;;4979423;28;20052;-83
2022/05/09 07:34:34;;;;;;;3.65;1.70;;;;;;;;;;5011866;28;20038;-83
2022/05/09 07:37:00;;;;;;;3.55;1.42;;;;;;;;;;5028420;28;20412;-83
2022/05/09 07:39:25;;;;;;;3.55;1.30;;;;;;;;;;5008265;28;20026;-83
2022/05/09 07:41:51;;;;;;;4.47;1.35;;;;;;;;;;4976210;28;20048;-83
2022/05/09 07:44:16;;;;;;;4.53;1.83;;;;;;;;;;4976116;28;20035;-83
2022/05/09 07:46:42;;;;;;;7.57;3.13;;;;;;;;;;4976066;28;20061;-82
2022/05/09 07:49:07;;;;;;;8.88;5.18;;;;;;;;;;4991869;28;20077;-82
2022/05/09 07:51:37;;;;;;;11.95;8.07;;;;;;;;;;5013260;28;20053;-82
2022/05/09 07:54:03;;;;;;;14.27;9.50;;;;;;;;;;5000068;28;20112;-83
2022/05/09 07:56:28;;;;;;;17.35;11.55;;;;;;;;;;4985643;28;20045;-82
2022/05/09 07:58:54;;;;;;;16.77;11.45;;;;;;;;;;5011711;28;20519;-83
2022/05/09 08:01:19;;;;;;;19.95;12.52;;;;;;;;;;5011294;28;20511;-82
2022/05/09 08:03:45;;;;;;;18.15;13.07;;;;;;;;;;4995141;28;20412;-82
2022/05/09 08:06:10;;;;;;;14.77;10.82;;;;;;;;;;5011329;28;20404;-83
2022/05/09 08:08:36;;;;;;;17.42;10.18;;;;;;;;;;5011403;28;20396;-81
2022/05/09 08:11:02;;;;;;;15.93;9.00;;;;;;;;;;5011214;28;20091;-82
2022/05/09 08:13:30;;;;;;;12.43;8.45;;;;;;;;;;5027674;28;20026;-82
2022/05/09 08:15:55;;;;;;;12.27;7.60;;;;;;;;;;4978007;28;20037;-82
2022/05/09 08:18:21;;;;;;;12.40;6.85;;;;;;;;;;4978382;28;20511;-82
2022/05/09 08:20:47;;;;;;;12.68;7.18;;;;;;;;;;5027522;28;20081;-82
2022/05/09 08:23:16;;;;;;;14.77;6.47;;;;;;;;;;5011617;28;20377;-82
2022/05/09 08:25:43;;;;;;;9.07;5.70;;;;;;;;;;4978885;28;20092;-82
2022/05/09 08:28:08;;;;;;;9.07;5.35;;;;;;;;;;4995043;28;20140;-82
2022/05/09 08:30:34;;;;;;;8.98;4.50;;;;;;;;;;4994492;28;20484;-82
2022/05/09 08:33:01;;;;;;;8.20;4.43;;;;;;;;;;5011520;28;20188;-82
2022/05/09 08:35:27;;;;;;;9.25;5.18;;;;;;;;;;5010726;28;20092;-82
2022/05/09 08:37:52;;;;;;;10.63;4.32;;;;;;;;;;5011209;28;20037;-82
2022/05/09 08:40:20;;;;;;;7.13;3.65;;;;;;;;;;4992810;28;20034;-83
2022/05/09 08:42:51;;;;;;;11.27;4.07;;;;;;;;;;5016652;28;20121;-82
2022/05/09 08:45:28;;;;;;;9.13;3.72;;;;;;;;;;5000595;28;20091;-82
2022/05/09 08:48:18;;;;;;;9.27;3.53;;;;;;;;;;4989215;28;20562;-82
2022/05/09 08:51:05;;;;;;;6.93;2.78;;;;;;;;;;5020999;28;20073;-82
2022/05/09 08:53:35;;;;;;;11.95;6.65;;;;;;;;;;4994574;28;20038;-83
2022/05/09 08:56:01;;;;;;;11.43;5.18;;;;;;;;;;5021246;28;20037;-82
2022/05/09 08:58:40;;;;;;;13.65;6.03;;;;;;;;;;5009948;28;20087;-82
2022/05/09 09:01:55;;;;;;;8.43;4.60;;;;;;;;;;4992031;28;20052;-82
2022/05/09 09:04:23;;;;;;;7.63;4.32;;;;;;;;;;4992245;28;20057;-82
2022/05/09 09:07:13;;;;;;;13.18;6.50;;;;;;;;;;5025078;28;20400;-83
2022/05/09 09:09:50;;;;;;;10.13;4.63;;;;;;;;;;4998729;28;20516;-83
2022/05/09 09:12:52;;;;;;;8.60;4.50;;;;;;;;;;5004011;28;20516;-82
2022/05/09 09:15:29;;;;;;;8.25;3.33;;;;;;;;;;4997032;28;20125;-82
2022/05/09 09:18:20;;;;;;;10.75;3.45;;;;;;;;;;5015061;28;20587;-83
2022/05/09 09:20:54;;;;;;;7.32;3.45;;;;;;;;;;4991528;28;20041;-83
2022/05/09 09:23:25;;;;;;;8.50;3.95;;;;;;;;;;5008938;28;20052;-82
2022/05/09 09:26:28;;;;;;;8.35;2.33;;;;;;;;;;5006722;28;20467;-83
2022/05/09 09:29:08;;;;;;;7.78;3.20;;;;;;;;;;5017058;28;20483;-83
2022/05/09 09:31:36;;;;;;;8.77;3.35;;;;;;;;;;4998856;28;20096;-82
2022/05/09 09:34:26;;;;;;;4.35;2.63;;;;;;;;;;5021696;28;20069;-83
2022/05/09 09:37:02;;;;;;;6.28;2.28;;;;;;;;;;4995737;28;20129;-83
2022/05/09 09:39:28;;;;;;;11.35;5.13;;;;;;;;;;5020408;28;20046;-83
2022/05/09 09:41:55;;;;;;;21.73;14.45;;;;;;;;;;5027299;28;20045;-83
2022/05/09 09:44:22;;;;;;;21.70;15.90;;;;;;;;;;4992398;28;20049;-83
2022/05/09 09:47:20;;;;;;;14.52;10.60;;;;;;;;;;5004485;28;20057;-83
2022/05/09 09:49:50;;;;;;;14.38;10.25;;;;;;;;;;5013733;28;20095;-83
2022/05/09 09:52:17;;;;;;;13.23;9.63;;;;;;;;;;5009916;28;20110;-83
2022/05/09 09:54:47;;;;;;;18.40;14.45;;;;;;;;;;4994494;28;20034;-83
2022/05/09 09:57:17;;;;;;;25.52;19.33;;;;;;;;;;5009862;28;20527;-83
2022/05/09 09:59:43;;;;;;;19.33;13.07;;;;;;;;;;5006704;28;20412;-84
2022/05/09 10:02:31;;;;;;;12.43;7.47;;;;;;;;;;5013937;28;20048;-84
2022/05/09 10:04:56;;;;;;;8.15;4.93;;;;;;;;;;5030200;28;20041;-83
2022/05/09 10:07:34;;;;;;;7.10;4.43;;;;;;;;;;5013665;28;20563;-83
2022/05/09 10:10:16;;;;;;;5.95;3.53;;;;;;;;;;5030474;28;20461;-84
2022/05/09 10:12:49;;;;;;;6.57;3.45;;;;;;;;;;5013526;28;20033;-83
2022/05/09 10:15:28;;;;;;;6.97;3.10;;;;;;;;;;4981145;28;20030;-82
2022/05/09 10:17:54;;;;;;;5.53;2.92;;;;;;;;;;4980990;28;20062;-83
2022/05/09 10:20:28;;;;;;;5.07;2.50;;;;;;;;;;4981130;28;20056;-84
2022/05/09 10:26:14;;;;;;;5.70;2.60;;;;;;;;;;5013924;28;20045;-84
2022/05/09 10:28:44;;;;;;;7.13;2.93;;;;;;;;;;4997271;28;20396;-84
2022/05/09 10:31:20;;;;;;;4.85;3.08;;;;;;;;;;4980905;28;20500;-84
2022/05/09 10:34:12;;;;;;;6.13;3.13;;;;;;;;;;4981939;28;20038;-83
2022/05/09 10:36:50;;;;;;;5.10;3.08;;;;;;;;;;5013519;28;20113;-83
2022/05/09 10:39:31;;;;;;;8.43;3.15;;;;;;;;;;4996198;28;20184;-83
2022/05/09 10:42:02;;;;;;;5.45;2.95;;;;;;;;;;4996852;28;20060;-83
2022/05/09 10:44:44;;;;;;;6.53;3.83;;;;;;;;;;4997477;28;20607;-84
2022/05/09 10:47:15;;;;;;;8.60;4.85;;;;;;;;;;4982093;28;20026;-84
2022/05/09 10:49:46;;;;;;;8.95;5.80;;;;;;;;;;5012914;28;20103;-83
2022/05/09 10:52:27;;;;;;;11.63;7.32;;;;;;;;;;5009677;28;20062;-83
2022/05/09 10:55:22;;;;;;;9.70;5.90;;;;;;;;;;5009634;28;20033;-84
2022/05/09 10:58:12;;;;;;;9.63;5.65;;;;;;;;;;5012396;28;20042;-83
2022/05/09 11:00:46;;;;;;;8.07;5.13;;;;;;;;;;4994465;28;20042;-83
2022/05/09 11:03:22;;;;;;;7.75;4.28;;;;;;;;;;5010243;28;20045;-83
2022/05/09 11:05:51;;;;;;;5.88;4.57;;;;;;;;;;5010479;28;20026;-83
2022/05/09 11:08:35;;;;;;;7.60;4.30;;;;;;;;;;5029074;28;20091;-83
2022/05/09 11:11:24;;;;;;;6.40;4.20;;;;;;;;;;5028127;28;20033;-83
2022/05/09 11:14:21;;;;;;;6.03;3.88;;;;;;;;;;5012680;28;20042;-83
2022/05/09 11:17:12;;;;;;;6.40;3.45;;;;;;;;;;4996161;28;20030;-83
2022/05/09 11:19:57;;;;;;;6.97;3.42;;;;;;;;;;5012126;28;20125;-83
2022/05/09 11:22:30;;;;;;;4.22;3.20;;;;;;;;;;5045374;28;20145;-82
2022/05/09 11:25:20;;;;;;;4.70;3.28;;;;;;;;;;5012088;28;20045;-82
2022/05/09 11:27:55;;;;;;;6.05;3.25;;;;;;;;;;5028511;28;20026;-83
2022/05/09 11:30:22;;;;;;;5.15;3.28;;;;;;;;;;5045026;28;20046;-83
2022/05/09 11:33:10;;;;;;;6.22;3.28;;;;;;;;;;5011933;28;20030;-84
2022/05/09 11:35:36;;;;;;;5.43;3.28;;;;;;;;;;5025876;28;20041;-83
2022/05/09 11:38:16;;;;;;;6.53;3.17;;;;;;;;;;5012209;28;20029;-83
2022/05/09 11:41:08;;;;;;;5.07;3.70;;;;;;;;;;5028419;28;20040;-83
2022/05/09 11:43:41;;;;;;;4.90;2.70;;;;;;;;;;4996018;28;20033;-83
2022/05/09 11:46:31;;;;;;;4.68;2.88;;;;;;;;;;5011848;28;20112;-83
2022/05/09 11:49:23;;;;;;;5.40;3.47;;;;;;;;;;5012279;28;20049;-82
2022/05/09 11:51:57;;;;;;;6.85;2.80;;;;;;;;;;5001800;28;20439;-83
2022/05/09 11:54:40;;;;;;;6.90;2.78;;;;;;;;;;4982578;28;20491;-82
2022/05/09 11:57:09;;;;;;;4.60;2.85;;;;;;;;;;5015153;28;20088;-82
2022/05/09 11:59:35;;;;;;;4.00;2.47;;;;;;;;;;5028073;28;20479;-82
2022/05/09 12:02:05;;;;;;;5.15;2.53;;;;;;;;;;4995297;28;20025;-82
2022/05/09 12:04:41;;;;;;;3.45;2.38;;;;;;;;;;5011712;28;20049;-82
2022/05/09 12:07:25;;;;;;;5.13;2.58;;;;;;;;;;4995018;28;20034;-83
2022/05/09 12:10:03;;;;;;;4.13;2.17;;;;;;;;;;5011464;28;20488;-83
2022/05/09 12:12:37;;;;;;;3.88;2.40;;;;;;;;;;5011343;28;20112;-83
2022/05/09 12:15:26;;;;;;;3.22;2.20;;;;;;;;;;5024712;28;20066;-83
2022/05/09 12:17:57;;;;;;;8.55;2.95;;;;;;;;;;5026868;28;20542;-82
2022/05/09 12:20:27;;;;;;;5.53;2.72;;;;;;;;;;5027606;28;20234;-82
2022/05/09 12:22:53;;;;;;;4.47;2.47;;;;;;;;;;5027617;28;20033;-82
2022/05/09 12:25:39;;;;;;;4.25;2.97;;;;;;;;;;5027679;28;20104;-82
2022/05/09 12:28:30;;;;;;;4.50;2.25;;;;;;;;;;5027530;28;20030;-82
2022/05/09 12:30:59;;;;;;;4.25;1.90;;;;;;;;;;5044407;28;20568;-82
2022/05/09 12:33:43;;;;;;;3.53;2.13;;;;;;;;;;5027739;28;20421;-83
2022/05/09 12:36:17;;;;;;;8.45;4.00;;;;;;;;;;5010510;28;20095;-82
2022/05/09 12:38:49;;;;;;;5.03;2.20;;;;;;;;;;5010384;28;20026;-82
2022/05/09 12:41:30;;;;;;;3.53;2.47;;;;;;;;;;5007102;28;20468;-82
2022/05/09 12:44:08;;;;;;;4.60;2.05;;;;;;;;;;4991376;28;20039;-82
2022/05/09 12:46:45;;;;;;;3.30;1.88;;;;;;;;;;5023765;28;20081;-82
2022/05/09 12:49:10;;;;;;;5.18;2.70;;;;;;;;;;4991012;28;20044;-83
2022/05/09 12:51:47;;;;;;;4.70;2.30;;;;;;;;;;5012969;28;20045;-82
2022/05/09 12:54:20;;;;;;;3.22;1.95;;;;;;;;;;4981825;28;20067;-82
2022/05/09 12:56:47;;;;;;;3.55;2.15;;;;;;;;;;5015119;28;20034;-82
2022/05/09 12:59:14;;;;;;;4.22;2.17;;;;;;;;;;5027415;28;20068;-83
2022/05/09 13:01:43;;;;;;;4.03;2.00;;;;;;;;;;5010588;28;20044;-83
2022/05/09 13:04:25;;;;;;;3.33;2.10;;;;;;;;;;5026985;28;20034;-83
2022/05/09 13:06:53;;;;;;;3.63;2.38;;;;;;;;;;5027499;28;20069;-83
2022/05/09 13:09:20;;;;;;;3.45;2.13;;;;;;;;;;5027273;28;20136;-83
2022/05/09 13:12:01;;;;;;;4.78;2.88;;;;;;;;;;5010382;28;20042;-82
2022/05/09 13:14:49;;;;;;;7.40;2.60;;;;;;;;;;4990071;28;20679;-84
2022/05/09 13:17:30;;;;;;;3.78;2.95;;;;;;;;;;5026249;28;20026;-83
2022/05/09 13:19:56;;;;;;;6.68;3.35;;;;;;;;;;5024675;28;20546;-83
2022/05/09 13:22:32;;;;;;;6.63;3.30;;;;;;;;;;4994145;28;20038;-83
2022/05/09 13:25:00;;;;;;;6.40;3.45;;;;;;;;;;5009335;28;20057;-84
2022/05/09 13:27:26;;;;;;;5.45;2.60;;;;;;;;;;5010117;28;20117;-84
2022/05/09 13:29:52;;;;;;;8.50;3.00;;;;;;;;;;5026783;28;20042;-84
2022/05/09 13:32:29;;;;;;;5.50;3.08;;;;;;;;;;5010765;28;20069;-85
2022/05/09 13:34:55;;;;;;;6.88;3.42;;;;;;;;;;5009871;28;20048;-84
2022/05/09 13:37:31;;;;;;;6.28;3.17;;;;;;;;;;5026639;28;20132;-84
2022/05/09 13:39:57;;;;;;;9.18;4.03;;;;;;;;;;5007084;28;20097;-85
2022/05/09 13:42:33;;;;;;;6.90;3.78;;;;;;;;;;4985467;28;20045;-85
2022/05/09 13:45:01;;;;;;;5.60;2.95;;;;;;;;;;5008776;28;20026;-85
2022/05/09 13:47:26;;;;;;;7.38;3.38;;;;;;;;;;4993617;28;20033;-84
2022/05/09 13:49:55;;;;;;;7.05;2.83;;;;;;;;;;4992827;28;20515;-84
2022/05/09 13:52:37;;;;;;;9.25;3.92;;;;;;;;;;5027015;28;20042;-85
2022/05/09 13:55:04;;;;;;;9.60;3.85;;;;;;;;;;5010067;28;20065;-85
2022/05/09 13:57:29;;;;;;;8.48;3.53;;;;;;;;;;5010397;28;20389;-85
2022/05/09 13:59:58;;;;;;;4.80;3.00;;;;;;;;;;5010226;28;20100;-84
2022/05/09 14:02:26;;;;;;;3.78;2.50;;;;;;;;;;5027311;28;20050;-84
2022/05/09 14:05:18;;;;;;;6.80;2.70;;;;;;;;;;4993972;28;20037;-85
2022/05/09 14:07:46;;;;;;;4.82;2.65;;;;;;;;;;4980384;28;20065;-84
2022/05/09 14:10:23;;;;;;;4.47;2.97;;;;;;;;;;5026614;28;20073;-84
2022/05/09 14:12:48;;;;;;;5.63;3.33;;;;;;;;;;5028017;28;20037;-85
2022/05/09 14:15:18;;;;;;;6.13;3.53;;;;;;;;;;4979377;28;20496;-84
2022/05/09 14:18:07;;;;;;;5.38;2.78;;;;;;;;;;5006493;28;20040;-84
2022/05/09 14:20:38;;;;;;;4.45;3.00;;;;;;;;;;5027004;28;20071;-84
2022/05/09 14:23:04;;;;;;;5.65;3.20;;;;;;;;;;5000442;28;20221;-85
2022/05/09 14:31:24;;;;;;;5.22;2.70;;;;;;;;;;5033200;28;20033;-84
2022/05/09 14:33:51;;;;;;;9.32;2.70;;;;;;;;;;5016517;28;20052;-85
2022/05/09 14:36:30;;;;;;;8.57;2.78;;;;;;;;;;4984488;28;20037;-85
2022/05/09 14:38:56;;;;;;;5.97;3.50;;;;;;;;;;4987517;28;20112;-85
2022/05/09 14:41:36;;;;;;;9.02;3.28;;;;;;;;;;5012746;28;20063;-85
2022/05/09 14:44:14;;;;;;;5.70;3.15;;;;;;;;;;5013970;28;20092;-85
2022/05/09 14:46:42;;;;;;;143.98;20.73;;;;;;;;;;5013161;28;20045;-85
2022/05/09 14:49:09;;;;;;;7.35;4.20;;;;;;;;;;5046117;28;20037;-83
2022/05/09 14:51:35;;;;;;;13.90;4.40;;;;;;;;;;5032457;28;20049;-84
2022/05/09 14:54:01;;;;;;;14.68;4.57;;;;;;;;;;4984029;28;20041;-84
2022/05/09 14:59:35;;;;;;;6.25;3.53;;;;;;;;;;5031674;28;20092;-84
2022/05/09 15:02:06;;;;;;;6.93;3.17;;;;;;;;;;5031425;28;20427;-83
2022/05/09 15:04:32;;;;;;;10.10;4.18;;;;;;;;;;5029641;28;20450;-83
2022/05/09 15:06:58;;;;;;;8.85;3.60;;;;;;;;;;4996476;28;20033;-83
2022/05/09 15:09:23;;;;;;;7.88;3.28;;;;;;;;;;5028336;28;20548;-83
2022/05/09 15:11:48;;;;;;;5.32;2.75;;;;;;;;;;5027942;28;20088;-83
2022/05/09 15:14:15;;;;;;;7.15;3.35;;;;;;;;;;4996243;28;20084;-83
2022/05/09 15:16:45;;;;;;;6.25;3.25;;;;;;;;;;4995775;28;20046;-83
2022/05/09 15:19:28;;;;;;;5.45;2.90;;;;;;;;;;5028780;28;20048;-83